Time;durP1;ratioP1;P1;durP2;ratioP2;P2;SDS_P1;SDS_P2;PMS_P1;PMS_P2;Temp;Humidity;BMP_temperature;BMP_pressure;BME280_temperature;BME280_humidity;BME280_pressure;Samples;Min_cycle;Max_cycle;Signal;HPM_P1;HPM_P2
2022/08/10 00:00:19;;;;;;;;;;;23.20;64.00;;;;;;5114717;28;19908;-75
2022/08/10 00:02:11;;;;;;;;;;;23.20;63.90;;;;;;5114382;28;19914;-75
2022/08/10 00:04:36;;;;;;;;;;;23.20;63.80;;;;;;5114701;28;19919;-75
2022/08/10 00:07:02;;;;;;;;;;;23.20;63.70;;;;;;5114029;28;19923;-74
2022/08/10 00:09:27;;;;;;;;;;;23.20;63.70;;;;;;5114483;28;19908;-73
2022/08/10 00:11:53;;;;;;;;;;;23.20;64.10;;;;;;5114456;28;19967;-74
2022/08/10 00:14:19;;;;;;;;;;;23.20;63.90;;;;;;5114487;28;19934;-74
2022/08/10 00:16:44;;;;;;;;;;;23.20;63.90;;;;;;5117652;28;19908;-75
2022/08/10 00:19:10;;;;;;;;;;;23.20;63.90;;;;;;5118143;28;20014;-75
2022/08/10 00:21:35;;;;;;;;;;;23.20;63.80;;;;;;5118291;28;19908;-76
2022/08/10 00:24:01;;;;;;;;;;;23.20;63.80;;;;;;5118711;28;19914;-79
2022/08/10 00:26:26;;;;;;;;;;;23.10;63.70;;;;;;5118218;28;20358;-75
2022/08/10 00:28:52;;;;;;;;;;;23.20;63.70;;;;;;5117023;28;20003;-76
2022/08/10 00:31:17;;;;;;;;;;;23.10;63.90;;;;;;5118014;28;20239;-74
2022/08/10 00:33:43;;;;;;;;;;;23.10;63.80;;;;;;5118202;28;20342;-75
2022/08/10 00:36:08;;;;;;;;;;;23.10;63.60;;;;;;5118177;28;20350;-75
2022/08/10 00:38:35;;;;;;;;;;;23.10;63.50;;;;;;5118107;28;19968;-79
2022/08/10 00:41:01;;;;;;;;;;;23.10;63.80;;;;;;5117846;28;19912;-75
2022/08/10 00:43:26;;;;;;;;;;;23.10;63.70;;;;;;5117689;28;19933;-80
2022/08/10 00:45:52;;;;;;;;;;;23.10;63.60;;;;;;5117675;28;19915;-75
2022/08/10 00:48:18;;;;;;;;;;;23.00;63.50;;;;;;5117935;28;19908;-75
2022/08/10 00:50:43;;;;;;;;;;;23.10;63.60;;;;;;5117631;28;20265;-80
2022/08/10 00:53:09;;;;;;;;;;;23.00;63.60;;;;;;5117733;28;20002;-75
2022/08/10 00:55:34;;;;;;;;;;;23.00;63.60;;;;;;5116667;28;19943;-74
2022/08/10 00:58:01;;;;;;;;;;;23.00;63.60;;;;;;5117734;28;19908;-75
2022/08/10 01:00:28;;;;;;;;;;;23.00;63.70;;;;;;5117228;28;20381;-75
2022/08/10 01:02:54;;;;;;;;;;;23.00;63.80;;;;;;5115724;28;19914;-75
2022/08/10 01:05:20;;;;;;;;;;;23.00;63.90;;;;;;5117514;28;19920;-74
2022/08/10 01:07:48;;;;;;;;;;;23.00;63.80;;;;;;5117568;28;19911;-75
2022/08/10 01:10:22;;;;;;;;;;;23.00;63.90;;;;;;5117471;28;19912;-73
2022/08/10 01:13:03;;;;;;;;;;;23.00;63.90;;;;;;5117485;28;19908;-72
2022/08/10 01:15:31;;;;;;;;;;;22.90;64.10;;;;;;5117161;28;19914;-74
2022/08/10 01:18:14;;;;;;;;;;;23.00;64.50;;;;;;5117261;28;19912;-75
2022/08/10 01:20:46;;;;;;;;;;;22.90;63.80;;;;;;5117319;28;19995;-74
2022/08/10 01:23:20;;;;;;;;;;;23.00;64.00;;;;;;5117045;28;19912;-75
2022/08/10 01:25:46;;;;;;;;;;;22.90;64.00;;;;;;5117074;28;20327;-78
2022/08/10 01:28:11;;;;;;;;;;;22.90;64.00;;;;;;5116681;28;19911;-75
2022/08/10 01:30:37;;;;;;;;;;;22.90;64.50;;;;;;5117675;28;19908;-75
2022/08/10 01:33:27;;;;;;;;;;;22.90;64.00;;;;;;5116926;28;20338;-75
2022/08/10 01:36:04;;;;;;;;;;;22.90;64.10;;;;;;5117397;28;19930;-74
2022/08/10 01:38:34;;;;;;;;;;;22.80;64.00;;;;;;5117086;28;20006;-72
2022/08/10 01:41:03;;;;;;;;;;;22.80;64.00;;;;;;5117013;28;19908;-74
2022/08/10 01:43:30;;;;;;;;;;;22.70;64.00;;;;;;5115385;28;19933;-75
2022/08/10 01:45:57;;;;;;;;;;;22.70;64.20;;;;;;5116906;28;19912;-74
2022/08/10 01:48:31;;;;;;;;;;;22.70;64.20;;;;;;5117060;28;19912;-74
2022/08/10 01:51:01;;;;;;;;;;;22.70;64.40;;;;;;5116737;28;19908;-74
2022/08/10 01:53:31;;;;;;;;;;;22.70;64.30;;;;;;5116396;28;20297;-75
2022/08/10 01:55:57;;;;;;;;;;;22.60;64.40;;;;;;5115181;28;19908;-76
2022/08/10 01:58:23;;;;;;;;;;;22.60;64.50;;;;;;5115240;28;19915;-74
2022/08/10 02:00:50;;;;;;;;;;;22.60;64.90;;;;;;5115119;28;19908;-74
2022/08/10 02:03:17;;;;;;;;;;;22.60;64.40;;;;;;5116500;28;19990;-72
2022/08/10 02:05:46;;;;;;;;;;;22.60;64.50;;;;;;5114567;28;19920;-75
2022/08/10 02:08:14;;;;;;;;;;;22.60;64.40;;;;;;5116334;28;19908;-74
2022/08/10 02:10:42;;;;;;;;;;;22.50;64.50;;;;;;5116373;28;19911;-75
2022/08/10 02:13:09;;;;;;;;;;;22.50;64.80;;;;;;5116029;28;19908;-76
2022/08/10 02:15:36;;;;;;;;;;;22.50;64.70;;;;;;5115049;28;19908;-75
2022/08/10 02:18:03;;;;;;;;;;;22.50;64.70;;;;;;5116180;28;19918;-77
2022/08/10 02:20:33;;;;;;;;;;;22.50;65.00;;;;;;5116450;28;20346;-75
2022/08/10 02:23:03;;;;;;;;;;;22.50;65.20;;;;;;5115802;28;19954;-75
2022/08/10 02:25:29;;;;;;;;;;;22.40;64.70;;;;;;5115788;28;19908;-75
2022/08/10 02:27:55;;;;;;;;;;;22.40;64.90;;;;;;5115768;28;19952;-75
2022/08/10 02:30:21;;;;;;;;;;;22.40;65.00;;;;;;5116269;28;19975;-71
2022/08/10 02:32:48;;;;;;;;;;;22.40;65.00;;;;;;5114320;28;20438;-75
2022/08/10 02:35:13;;;;;;;;;;;22.40;65.40;;;;;;5116064;28;20049;-75
2022/08/10 02:37:40;;;;;;;;;;;22.30;65.90;;;;;;5115951;28;19964;-75
2022/08/10 02:40:06;;;;;;;;;;;22.30;65.50;;;;;;5114513;28;19973;-75
2022/08/10 02:42:47;;;;;;;;;;;22.30;65.40;;;;;;5115649;28;19996;-75
2022/08/10 02:45:32;;;;;;;;;;;22.30;65.50;;;;;;5115387;28;19908;-75
2022/08/10 02:48:04;;;;;;;;;;;22.30;65.50;;;;;;5113554;28;19915;-75
2022/08/10 02:50:34;;;;;;;;;;;22.30;65.50;;;;;;5116016;28;20269;-76
2022/08/10 02:53:17;;;;;;;;;;;22.30;65.80;;;;;;5115570;28;20349;-75
2022/08/10 02:55:46;;;;;;;;;;;22.30;65.50;;;;;;5115423;28;19970;-74
2022/08/10 02:58:14;;;;;;;;;;;22.40;66.00;;;;;;5115143;28;19954;-75
2022/08/10 03:00:41;;;;;;;;;;;22.40;65.60;;;;;;5114431;28;20273;-73
2022/08/10 03:03:09;;;;;;;;;;;22.40;65.50;;;;;;5115322;28;19908;-74
2022/08/10 03:05:35;;;;;;;;;;;22.40;65.50;;;;;;5115122;28;19926;-73
2022/08/10 03:08:02;;;;;;;;;;;22.40;65.50;;;;;;5115208;28;19916;-75
2022/08/10 03:10:29;;;;;;;;;;;22.40;65.50;;;;;;5115485;28;19915;-75
2022/08/10 03:13:02;;;;;;;;;;;22.40;65.70;;;;;;5113922;28;19908;-75
2022/08/10 03:15:29;;;;;;;;;;;22.40;65.80;;;;;;5115977;28;20010;-76
2022/08/10 03:17:55;;;;;;;;;;;22.40;65.70;;;;;;5114815;28;19930;-75
2022/08/10 03:20:22;;;;;;;;;;;22.40;66.00;;;;;;5113485;28;20006;-75
2022/08/10 03:22:51;;;;;;;;;;;22.40;65.80;;;;;;5115158;28;19912;-74
2022/08/10 03:25:18;;;;;;;;;;;22.40;66.00;;;;;;5115079;28;19908;-74
2022/08/10 03:27:44;;;;;;;;;;;22.40;66.00;;;;;;5114744;28;19912;-75
2022/08/10 03:30:10;;;;;;;;;;;22.30;66.00;;;;;;5115183;28;20338;-75
2022/08/10 03:32:37;;;;;;;;;;;22.40;66.50;;;;;;5114186;28;19908;-76
2022/08/10 03:35:04;;;;;;;;;;;22.30;67.10;;;;;;5115010;28;19907;-78
2022/08/10 03:37:29;;;;;;;;;;;22.30;66.50;;;;;;5114590;28;19920;-76
2022/08/10 03:39:55;;;;;;;;;;;22.20;66.20;;;;;;5114713;28;19908;-76
2022/08/10 03:42:21;;;;;;;;;;;22.30;66.60;;;;;;5113363;28;19958;-72
2022/08/10 03:44:48;;;;;;;;;;;22.20;66.60;;;;;;5114461;28;19914;-74
2022/08/10 03:47:14;;;;;;;;;;;22.20;66.70;;;;;;5114516;28;20358;-75
2022/08/10 03:49:40;;;;;;;;;;;22.20;67.10;;;;;;5114945;28;20374;-75
2022/08/10 03:52:06;;;;;;;;;;;22.20;67.10;;;;;;5121276;28;19966;-75
2022/08/10 03:54:33;;;;;;;;;;;22.20;67.00;;;;;;5120081;28;19912;-75
2022/08/10 03:56:58;;;;;;;;;;;22.20;67.20;;;;;;5120104;28;19976;-74
2022/08/10 03:59:25;;;;;;;;;;;22.20;67.30;;;;;;5121521;28;20380;-75
2022/08/10 04:01:51;;;;;;;;;;;22.20;67.30;;;;;;5120190;28;19994;-73
2022/08/10 04:04:18;;;;;;;;;;;22.20;67.50;;;;;;5121590;28;20273;-76
2022/08/10 04:06:44;;;;;;;;;;;22.20;67.40;;;;;;5120894;28;20361;-75
2022/08/10 04:09:10;;;;;;;;;;;22.20;67.20;;;;;;5121422;28;19956;-75
2022/08/10 04:11:35;;;;;;;;;;;22.20;67.90;;;;;;5121234;28;19912;-79
2022/08/10 04:14:02;;;;;;;;;;;22.20;67.40;;;;;;5121196;28;19965;-75
2022/08/10 04:16:27;;;;;;;;;;;22.10;67.80;;;;;;5121078;28;19914;-75
2022/08/10 04:18:53;;;;;;;;;;;22.10;68.40;;;;;;5121425;28;20002;-74
2022/08/10 04:21:30;;;;;;;;;;;22.10;67.70;;;;;;5119507;28;19912;-75
2022/08/10 04:23:57;;;;;;;;;;;22.10;68.40;;;;;;5120865;28;20003;-74
2022/08/10 04:26:23;;;;;;;;;;;22.10;68.40;;;;;;5120906;28;19950;-77
2022/08/10 04:28:48;;;;;;;;;;;22.10;68.50;;;;;;5120487;27;20002;-75
2022/08/10 04:31:15;;;;;;;;;;;22.10;68.50;;;;;;5121368;28;19957;-73
2022/08/10 04:33:42;;;;;;;;;;;22.10;68.50;;;;;;5120687;28;19960;-74
2022/08/10 04:36:09;;;;;;;;;;;22.10;68.50;;;;;;5120816;28;19994;-75
2022/08/10 04:38:35;;;;;;;;;;;22.20;68.40;;;;;;5121024;28;19915;-74
2022/08/10 04:41:01;;;;;;;;;;;22.20;68.30;;;;;;5119567;28;19919;-75
2022/08/10 04:43:26;;;;;;;;;;;22.20;68.40;;;;;;5120628;28;19908;-76
2022/08/10 04:45:52;;;;;;;;;;;22.20;68.10;;;;;;5120768;28;20325;-79
2022/08/10 04:48:19;;;;;;;;;;;22.20;69.00;;;;;;5120696;28;20274;-75
2022/08/10 04:50:44;;;;;;;;;;;22.20;68.50;;;;;;5120859;28;19908;-76
2022/08/10 04:53:10;;;;;;;;;;;22.20;68.50;;;;;;5119475;28;19914;-72
2022/08/10 04:55:36;;;;;;;;;;;22.30;69.80;;;;;;5120811;28;19908;-74
2022/08/10 04:58:02;;;;;;;;;;;22.20;69.40;;;;;;5120586;28;19912;-75
2022/08/10 05:00:28;;;;;;;;;;;22.20;70.20;;;;;;5120601;28;19977;-74
2022/08/10 05:02:53;;;;;;;;;;;22.10;69.10;;;;;;5117161;28;19924;-75
2022/08/10 05:05:19;;;;;;;;;;;22.10;69.40;;;;;;5117596;28;19927;-75
2022/08/10 05:07:45;;;;;;;;;;;22.00;70.00;;;;;;5117181;28;19965;-75
2022/08/10 05:10:10;;;;;;;;;;;22.00;69.60;;;;;;5117260;28;19912;-74
2022/08/10 05:12:36;;;;;;;;;;;22.00;69.70;;;;;;5117160;28;19912;-76
2022/08/10 05:15:03;;;;;;;;;;;21.90;70.10;;;;;;5117638;28;19908;-77
2022/08/10 05:17:29;;;;;;;;;;;22.00;70.30;;;;;;5115844;28;19962;-76
2022/08/10 05:19:54;;;;;;;;;;;21.90;70.40;;;;;;5116496;28;19908;-76
2022/08/10 05:22:20;;;;;;;;;;;21.90;70.30;;;;;;5117134;28;19915;-77
2022/08/10 05:24:45;;;;;;;;;;;21.90;70.20;;;;;;5116040;28;20025;-78
2022/08/10 05:27:11;;;;;;;;;;;21.90;70.30;;;;;;5117010;28;19915;-78
2022/08/10 05:29:36;;;;;;;;;;;21.90;70.90;;;;;;5117138;28;20290;-77
2022/08/10 05:32:02;;;;;;;;;;;21.80;71.70;;;;;;5116827;28;20422;-76
2022/08/10 05:34:29;;;;;;;;;;;21.80;70.50;;;;;;5115496;28;19912;-80
2022/08/10 05:36:54;;;;;;;;;;;21.80;71.10;;;;;;5115520;28;19966;-76
2022/08/10 05:39:21;;;;;;;;;;;21.80;70.70;;;;;;5116836;28;19958;-76
2022/08/10 05:41:49;;;;;;;;;;;21.80;71.00;;;;;;5117421;28;19908;-76
2022/08/10 05:44:15;;;;;;;;;;;21.90;71.60;;;;;;5115602;28;19908;-76
2022/08/10 05:46:41;;;;;;;;;;;21.90;71.10;;;;;;5116796;28;19926;-73
2022/08/10 05:49:06;;;;;;;;;;;21.90;70.90;;;;;;5116877;28;19912;-76
2022/08/10 05:51:32;;;;;;;;;;;21.90;72.50;;;;;;5116632;28;19908;-77
2022/08/10 05:53:59;;;;;;;;;;;21.70;71.80;;;;;;5116547;28;19908;-77
2022/08/10 05:56:25;;;;;;;;;;;21.80;72.40;;;;;;5115338;28;19908;-71
2022/08/10 05:58:50;;;;;;;;;;;21.90;73.30;;;;;;5116150;28;20315;-73
2022/08/10 06:01:17;;;;;;;;;;;21.80;72.50;;;;;;5116159;28;19959;-74
2022/08/10 06:03:49;;;;;;;;;;;21.80;72.10;;;;;;5116230;28;19908;-77
2022/08/10 06:06:17;;;;;;;;;;;21.80;72.80;;;;;;5116544;28;20260;-74
2022/08/10 06:08:44;;;;;;;;;;;21.80;72.60;;;;;;5116212;28;19911;-74
2022/08/10 06:11:10;;;;;;;;;;;21.80;72.60;;;;;;5115831;28;19907;-78
2022/08/10 06:16:20;;;;;;;;;;;21.80;72.00;;;;;;5116419;28;19915;-72
2022/08/10 06:18:46;;;;;;;;;;;21.80;72.40;;;;;;5116052;28;19911;-74
2022/08/10 06:21:13;;;;;;;;;;;22.00;72.80;;;;;;5115930;28;20010;-73
2022/08/10 06:23:39;;;;;;;;;;;22.20;72.80;;;;;;5115757;28;19908;-73
2022/08/10 06:26:06;;;;;;;;;;;22.40;72.20;;;;;;5115973;28;19915;-75
2022/08/10 06:28:34;;;;;;;;;;;22.60;71.70;;;;;;5116334;28;19919;-74
2022/08/10 06:31:00;;;;;;;;;;;22.80;71.40;;;;;;5116148;28;19998;-73
2022/08/10 06:33:26;;;;;;;;;;;23.00;71.00;;;;;;5115892;28;19908;-75
2022/08/10 06:35:53;;;;;;;;;;;23.10;70.60;;;;;;5116040;28;19916;-75
2022/08/10 06:38:20;;;;;;;;;;;23.30;70.10;;;;;;5115774;28;19986;-74
2022/08/10 06:40:47;;;;;;;;;;;23.50;69.90;;;;;;5115772;28;19908;-75
2022/08/10 06:43:14;;;;;;;;;;;23.60;69.50;;;;;;5115361;28;20341;-77
2022/08/10 06:45:46;;;;;;;;;;;23.80;69.20;;;;;;5115260;28;19908;-74
2022/08/10 06:48:26;;;;;;;;;;;23.90;68.80;;;;;;5115360;28;19923;-74
2022/08/10 06:50:56;;;;;;;;;;;24.00;68.50;;;;;;5114269;28;20307;-74
2022/08/10 06:53:24;;;;;;;;;;;24.20;68.10;;;;;;5115432;28;19916;-73
2022/08/10 06:56:06;;;;;;;;;;;24.30;68.40;;;;;;5115483;28;19908;-74
2022/08/10 06:58:34;;;;;;;;;;;24.40;67.70;;;;;;5115087;28;19919;-73
2022/08/10 07:01:03;;;;;;;;;;;24.40;67.40;;;;;;5115058;28;19908;-75
2022/08/10 07:03:32;;;;;;;;;;;24.60;67.20;;;;;;5114654;28;19960;-74
2022/08/10 07:05:58;;;;;;;;;;;24.70;67.10;;;;;;5113882;28;19919;-72
2022/08/10 07:08:25;;;;;;;;;;;24.80;66.80;;;;;;5114221;28;19915;-74
2022/08/10 07:10:52;;;;;;;;;;;24.90;66.70;;;;;;5113951;28;20309;-75
2022/08/10 07:13:18;;;;;;;;;;;24.90;66.50;;;;;;5114920;28;19908;-75
2022/08/10 07:15:45;;;;;;;;;;;25.00;66.30;;;;;;5114851;28;19908;-72
2022/08/10 07:18:11;;;;;;;;;;;25.10;66.30;;;;;;5114747;28;19915;-74
2022/08/10 07:20:37;;;;;;;;;;;25.10;66.00;;;;;;5114522;28;20442;-76
2022/08/10 07:23:04;;;;;;;;;;;25.20;65.70;;;;;;5113708;28;19908;-75
2022/08/10 07:25:30;;;;;;;;;;;25.20;65.90;;;;;;5114328;28;20334;-79
2022/08/10 07:27:57;;;;;;;;;;;25.30;66.40;;;;;;5114752;28;20010;-74
2022/08/10 07:30:23;;;;;;;;;;;25.40;65.30;;;;;;5114769;28;19907;-75
2022/08/10 07:32:50;;;;;;;;;;;25.40;65.50;;;;;;5114328;28;19908;-75
2022/08/10 07:35:17;;;;;;;;;;;25.50;65.40;;;;;;5113225;28;19954;-75
2022/08/10 07:37:48;;;;;;;;;;;25.50;65.30;;;;;;5114417;28;19915;-74
2022/08/10 07:40:15;;;;;;;;;;;25.50;65.30;;;;;;5114819;28;20414;-74
2022/08/10 07:42:42;;;;;;;;;;;25.60;65.10;;;;;;5114238;28;19912;-74
2022/08/10 07:45:08;;;;;;;;;;;25.70;65.10;;;;;;5114191;28;19908;-75
2022/08/10 07:47:36;;;;;;;;;;;25.80;65.00;;;;;;5114228;28;19911;-75
2022/08/10 07:50:04;;;;;;;;;;;25.80;64.80;;;;;;5113276;28;19950;-74
2022/08/10 07:52:31;;;;;;;;;;;25.90;64.60;;;;;;5113104;28;19960;-75
2022/08/10 07:54:58;;;;;;;;;;;25.90;64.50;;;;;;5114044;28;19908;-74
2022/08/10 07:57:24;;;;;;;;;;;26.00;64.50;;;;;;5114567;28;19908;-75
2022/08/10 07:59:52;;;;;;;;;;;26.00;64.30;;;;;;5114065;28;19915;-72
2022/08/10 08:02:36;;;;;;;;;;;26.00;64.20;;;;;;5114637;28;19907;-74
2022/08/10 08:05:06;;;;;;;;;;;26.10;64.10;;;;;;5113845;28;20378;-74
2022/08/10 08:07:33;;;;;;;;;;;26.10;64.00;;;;;;5112985;28;19912;-73
2022/08/10 08:10:00;;;;;;;;;;;26.10;63.90;;;;;;5114411;28;19919;-75
2022/08/10 08:12:26;;;;;;;;;;;26.20;63.80;;;;;;5114721;28;19908;-75
2022/08/10 08:14:52;;;;;;;;;;;26.20;63.70;;;;;;5114282;28;19919;-73
2022/08/10 08:17:20;;;;;;;;;;;26.30;63.60;;;;;;5113029;28;19955;-72
2022/08/10 08:19:48;;;;;;;;;;;26.40;63.60;;;;;;5114170;28;19908;-71
2022/08/10 08:22:15;;;;;;;;;;;26.40;63.40;;;;;;5113935;28;19908;-75
2022/08/10 08:24:41;;;;;;;;;;;26.50;62.90;;;;;;5114046;28;19908;-75
2022/08/10 08:27:08;;;;;;;;;;;26.60;62.60;;;;;;5114100;28;19912;-74
2022/08/10 08:29:35;;;;;;;;;;;26.60;62.60;;;;;;5112847;28;19947;-75
2022/08/10 08:32:01;;;;;;;;;;;26.50;62.40;;;;;;5113636;28;19907;-75
2022/08/10 08:34:27;;;;;;;;;;;26.60;62.50;;;;;;5114154;28;19933;-74
2022/08/10 08:36:53;;;;;;;;;;;26.50;62.90;;;;;;5114173;28;19912;-74
2022/08/10 08:39:19;;;;;;;;;;;26.50;62.20;;;;;;5117873;28;20257;-74
2022/08/10 08:41:52;;;;;;;;;;;26.50;62.20;;;;;;5117176;28;19908;-74
2022/08/10 08:44:37;;;;;;;;;;;26.50;61.90;;;;;;5116227;28;19908;-75
2022/08/10 08:47:28;;;;;;;;;;;26.50;62.20;;;;;;5116531;28;20349;-76
2022/08/10 08:49:54;;;;;;;;;;;26.50;62.20;;;;;;5117785;28;20416;-74
2022/08/10 08:52:28;;;;;;;;;;;26.40;62.10;;;;;;5117800;28;19939;-74
2022/08/10 08:55:11;;;;;;;;;;;26.40;61.80;;;;;;5117812;28;19976;-75
2022/08/10 08:57:55;;;;;;;;;;;26.40;61.80;;;;;;5117512;28;20003;-73
2022/08/10 09:00:36;;;;;;;;;;;26.40;61.70;;;;;;5117622;28;20475;-74
2022/08/10 09:03:04;;;;;;;;;;;26.30;61.40;;;;;;5117565;28;19916;-75
2022/08/10 09:05:43;;;;;;;;;;;26.30;61.90;;;;;;5117576;28;20018;-74
2022/08/10 09:08:12;;;;;;;;;;;26.20;61.40;;;;;;5115915;28;19964;-75
2022/08/10 09:10:43;;;;;;;;;;;26.20;61.60;;;;;;5117141;28;19912;-75
2022/08/10 09:13:15;;;;;;;;;;;26.20;61.40;;;;;;5117556;28;19907;-75
2022/08/10 09:16:04;;;;;;;;;;;26.30;61.50;;;;;;5117359;28;19919;-74
2022/08/10 09:18:40;;;;;;;;;;;26.30;61.50;;;;;;5117271;28;19931;-75
2022/08/10 09:21:14;;;;;;;;;;;26.40;61.60;;;;;;5117293;28;20381;-74
2022/08/10 09:23:42;;;;;;;;;;;26.40;61.60;;;;;;5117301;28;19908;-74
2022/08/10 09:26:22;;;;;;;;;;;26.40;61.10;;;;;;5116782;28;19954;-74
2022/08/10 09:28:50;;;;;;;;;;;26.50;61.00;;;;;;5116948;28;19912;-74
2022/08/10 09:31:19;;;;;;;;;;;26.50;60.90;;;;;;5116557;28;19908;-75
2022/08/10 09:34:03;;;;;;;;;;;26.50;60.60;;;;;;5116424;28;19911;-75
2022/08/10 09:36:41;;;;;;;;;;;26.60;60.60;;;;;;5116715;28;19916;-74
2022/08/10 09:39:10;;;;;;;;;;;26.70;60.50;;;;;;5116811;28;19907;-74
2022/08/10 09:41:52;;;;;;;;;;;26.70;60.20;;;;;;5116771;28;19953;-75
2022/08/10 09:44:38;;;;;;;;;;;26.80;60.20;;;;;;5117036;28;19908;-75
2022/08/10 09:47:22;;;;;;;;;;;26.90;60.00;;;;;;5116351;28;19912;-73
2022/08/10 09:49:59;;;;;;;;;;;26.90;59.90;;;;;;5115795;28;19958;-74
2022/08/10 09:52:31;;;;;;;;;;;26.90;59.10;;;;;;5116341;28;19960;-74
2022/08/10 09:55:09;;;;;;;;;;;26.90;59.20;;;;;;5116620;28;19908;-74
2022/08/10 09:57:40;;;;;;;;;;;26.90;59.40;;;;;;5116607;28;20003;-74
2022/08/10 10:00:13;;;;;;;;;;;26.90;59.60;;;;;;5116046;28;19912;-74
2022/08/10 10:02:43;;;;;;;;;;;27.00;59.60;;;;;;5116000;28;20362;-74
2022/08/10 10:05:24;;;;;;;;;;;27.00;58.60;;;;;;5114568;28;19971;-74
2022/08/10 10:07:56;;;;;;;;;;;27.00;58.70;;;;;;5115496;28;19959;-74
2022/08/10 10:10:25;;;;;;;;;;;27.00;58.90;;;;;;5116271;28;19980;-75
2022/08/10 10:12:57;;;;;;;;;;;26.90;58.80;;;;;;5116029;28;20323;-71
2022/08/10 10:15:23;;;;;;;;;;;26.80;58.80;;;;;;5115622;28;19908;-75
2022/08/10 10:17:48;;;;;;;;;;;26.70;58.70;;;;;;5116002;28;19908;-74
2022/08/10 10:20:26;;;;;;;;;;;26.60;58.90;;;;;;5116010;28;20006;-74
2022/08/10 10:23:00;;;;;;;;;;;26.60;58.70;;;;;;5115714;28;19908;-75
2022/08/10 10:25:28;;;;;;;;;;;26.60;58.80;;;;;;5115981;28;20061;-74
2022/08/10 10:28:12;;;;;;;;;;;26.60;58.80;;;;;;5115670;28;20014;-74
2022/08/10 10:30:53;;;;;;;;;;;26.50;58.90;;;;;;5115578;28;20377;-74
2022/08/10 10:33:42;;;;;;;;;;;26.60;58.90;;;;;;5115945;28;19998;-73
2022/08/10 10:36:08;;;;;;;;;;;26.60;58.80;;;;;;5086421;28;19912;-75
2022/08/10 10:38:35;;;;;;;;;;;26.50;58.80;;;;;;5115843;28;19912;-74
2022/08/10 10:41:15;;;;;;;;;;;26.60;59.10;;;;;;5115267;28;19999;-74
2022/08/10 10:43:58;;;;;;;;;;;26.60;58.90;;;;;;5116024;28;20350;-74
2022/08/10 10:46:38;;;;;;;;;;;26.60;58.70;;;;;;5114221;28;20317;-75
2022/08/10 10:49:22;;;;;;;;;;;26.60;58.50;;;;;;5115951;28;19912;-75
2022/08/10 10:51:55;;;;;;;;;;;26.60;58.30;;;;;;5115201;28;19908;-75
2022/08/10 10:54:30;;;;;;;;;;;26.50;58.40;;;;;;5115394;28;19908;-74
2022/08/10 10:57:15;;;;;;;;;;;26.50;58.80;;;;;;5113978;28;20371;-71
2022/08/10 10:59:52;;;;;;;;;;;26.50;58.50;;;;;;5114233;28;19908;-75
2022/08/10 11:02:23;;;;;;;;;;;26.50;58.70;;;;;;5115149;28;20350;-75
2022/08/10 11:05:09;;;;;;;;;;;26.50;58.70;;;;;;5114750;28;19920;-74
2022/08/10 11:07:41;;;;;;;;;;;26.50;58.80;;;;;;5072312;28;20449;-74
2022/08/10 11:10:12;;;;;;;;;;;26.50;58.80;;;;;;5115185;28;19908;-74
2022/08/10 11:12:43;;;;;;;;;;;26.60;58.90;;;;;;5115038;28;19941;-72
2022/08/10 11:15:18;;;;;;;;;;;26.70;58.90;;;;;;5115024;28;19914;-75
2022/08/10 11:17:55;;;;;;;;;;;26.80;58.80;;;;;;5114633;28;19915;-74
2022/08/10 11:20:37;;;;;;;;;;;26.90;58.80;;;;;;5114832;28;20007;-75
2022/08/10 11:23:11;;;;;;;;;;;27.00;58.60;;;;;;5114944;28;19908;-74
2022/08/10 11:25:41;;;;;;;;;;;27.00;58.50;;;;;;5114782;28;19908;-75
2022/08/10 11:28:11;;;;;;;;;;;27.10;58.40;;;;;;5114589;28;20007;-75
2022/08/10 11:31:00;;;;;;;;;;;27.10;58.30;;;;;;5114455;28;20277;-74
2022/08/10 11:33:41;;;;;;;;;;;27.20;58.20;;;;;;5114616;27;19908;-75
2022/08/10 11:36:18;;;;;;;;;;;27.30;58.20;;;;;;5114516;28;20354;-75
2022/08/10 11:38:46;;;;;;;;;;;27.40;58.10;;;;;;5114582;28;19947;-76
2022/08/10 11:41:17;;;;;;;;;;;27.40;57.90;;;;;;5114456;28;20285;-75
2022/08/10 11:43:47;;;;;;;;;;;27.60;57.90;;;;;;5114524;28;19908;-75
2022/08/10 11:46:25;;;;;;;;;;;27.60;57.80;;;;;;5114747;28;19912;-74
2022/08/10 11:49:03;;;;;;;;;;;27.70;57.70;;;;;;5113259;28;19990;-74
2022/08/10 11:51:35;;;;;;;;;;;27.70;57.70;;;;;;5113690;28;19914;-74
2022/08/10 11:54:13;;;;;;;;;;;27.80;57.70;;;;;;5114501;28;19908;-74
2022/08/10 11:56:45;;;;;;;;;;;27.80;57.70;;;;;;5114261;28;19952;-74
2022/08/10 12:01:56;;;;;;;;;;;27.90;57.50;;;;;;5114653;28;19915;-75
2022/08/10 12:04:22;;;;;;;;;;;27.90;57.50;;;;;;5114181;28;20011;-75
2022/08/10 12:06:50;;;;;;;;;;;28.00;58.20;;;;;;5114050;28;20010;-74
2022/08/10 12:09:16;;;;;;;;;;;28.10;57.60;;;;;;5114572;28;19911;-74
2022/08/10 12:11:42;;;;;;;;;;;28.10;57.40;;;;;;5114467;28;19912;-75
2022/08/10 12:14:13;;;;;;;;;;;28.20;57.30;;;;;;5118140;28;19907;-75
2022/08/10 12:16:40;;;;;;;;;;;28.30;57.20;;;;;;5118590;28;19915;-75
2022/08/10 12:19:12;;;;;;;;;;;28.30;57.70;;;;;;5118111;28;19912;-75
2022/08/10 12:21:41;;;;;;;;;;;28.30;57.10;;;;;;5118306;28;19919;-75
2022/08/10 12:24:25;;;;;;;;;;;28.40;57.00;;;;;;5118048;28;19908;-73
2022/08/10 12:26:51;;;;;;;;;;;28.40;57.10;;;;;;5117604;28;20259;-75
2022/08/10 12:29:17;;;;;;;;;;;28.40;57.00;;;;;;5118132;28;20049;-75
2022/08/10 12:31:46;;;;;;;;;;;28.40;57.10;;;;;;5119156;28;20341;-74
2022/08/10 12:34:13;;;;;;;;;;;28.50;57.00;;;;;;5116611;28;19908;-73
2022/08/10 12:36:40;;;;;;;;;;;28.50;57.00;;;;;;5117980;28;20353;-74
2022/08/10 12:39:06;;;;;;;;;;;28.50;56.80;;;;;;5118027;28;19912;-75
2022/08/10 12:41:50;;;;;;;;;;;28.50;56.80;;;;;;5117953;28;19911;-73
2022/08/10 12:44:42;;;;;;;;;;;28.60;56.80;;;;;;5117826;28;20319;-73
2022/08/10 12:47:20;;;;;;;;;;;28.70;56.60;;;;;;5114514;28;20264;-74
2022/08/10 12:50:13;;;;;;;;;;;28.70;56.60;;;;;;5118168;28;20277;-74
2022/08/10 12:52:56;;;;;;;;;;;28.80;56.50;;;;;;5114459;28;19908;-74
2022/08/10 12:55:23;;;;;;;;;;;28.80;56.40;;;;;;5116507;28;19908;-74
2022/08/10 12:57:50;;;;;;;;;;;28.90;56.50;;;;;;5117374;28;19915;-74
2022/08/10 13:00:16;;;;;;;;;;;28.80;56.40;;;;;;5116122;28;19915;-74
2022/08/10 13:02:43;;;;;;;;;;;28.90;56.30;;;;;;5117328;28;19912;-74
2022/08/10 13:05:12;;;;;;;;;;;28.90;56.30;;;;;;5117189;28;19920;-73
2022/08/10 13:07:39;;;;;;;;;;;28.90;56.30;;;;;;5116975;28;19918;-75
2022/08/10 13:10:09;;;;;;;;;;;28.90;56.20;;;;;;5117108;28;20010;-74
2022/08/10 13:12:38;;;;;;;;;;;28.90;56.30;;;;;;5117071;28;19912;-74
2022/08/10 13:15:07;;;;;;;;;;;28.90;56.20;;;;;;5117044;28;19961;-72
2022/08/10 13:17:34;;;;;;;;;;;28.80;56.20;;;;;;5117564;28;19908;-75
2022/08/10 13:20:04;;;;;;;;;;;28.80;56.10;;;;;;5117129;28;19960;-74
2022/08/10 13:22:31;;;;;;;;;;;28.70;55.50;;;;;;5116425;28;19958;-74
2022/08/10 13:24:59;;;;;;;;;;;28.60;56.40;;;;;;5116737;28;19962;-74
2022/08/10 13:27:33;;;;;;;;;;;28.40;55.50;;;;;;5116953;28;19963;-75
2022/08/10 13:30:04;;;;;;;;;;;28.30;55.90;;;;;;5116783;28;19912;-75
2022/08/10 13:32:31;;;;;;;;;;;28.20;56.00;;;;;;5116943;28;19907;-75
2022/08/10 13:35:01;;;;;;;;;;;28.20;56.40;;;;;;5116914;28;19915;-74
2022/08/10 13:37:29;;;;;;;;;;;28.10;56.40;;;;;;5116824;28;19916;-75
2022/08/10 13:39:56;;;;;;;;;;;28.00;56.00;;;;;;5115586;28;19998;-75
2022/08/10 13:42:24;;;;;;;;;;;28.00;56.40;;;;;;5116525;28;19911;-73
2022/08/10 13:44:52;;;;;;;;;;;27.90;56.40;;;;;;5116683;28;19961;-74
2022/08/10 13:47:18;;;;;;;;;;;27.90;56.30;;;;;;5116611;28;19957;-72
2022/08/10 13:49:53;;;;;;;;;;;27.80;56.30;;;;;;5116905;28;19911;-74
2022/08/10 13:52:22;;;;;;;;;;;27.80;56.40;;;;;;5116964;28;19915;-74
2022/08/10 13:54:50;;;;;;;;;;;27.80;56.50;;;;;;5116506;28;19908;-72
2022/08/10 13:57:32;;;;;;;;;;;27.80;56.50;;;;;;5116656;28;19912;-76
2022/08/10 13:59:58;;;;;;;;;;;27.80;56.50;;;;;;5116247;28;19953;-74
2022/08/10 14:02:44;;;;;;;;;;;27.80;56.60;;;;;;5116231;28;19908;-76
2022/08/10 14:05:10;;;;;;;;;;;27.70;56.60;;;;;;5115824;28;19927;-73
2022/08/10 14:07:39;;;;;;;;;;;27.70;56.70;;;;;;5115712;28;20235;-74
2022/08/10 14:10:09;;;;;;;;;;;27.60;56.60;;;;;;5114437;28;19912;-75
2022/08/10 14:12:40;;;;;;;;;;;27.60;56.70;;;;;;5114486;28;20342;-75
2022/08/10 14:15:12;;;;;;;;;;;27.50;56.70;;;;;;5116004;28;19990;-74
2022/08/10 14:17:38;;;;;;;;;;;27.50;56.80;;;;;;5116499;28;19908;-74
2022/08/10 14:20:07;;;;;;;;;;;27.40;56.80;;;;;;5115582;28;20310;-72
2022/08/10 14:22:34;;;;;;;;;;;27.40;56.90;;;;;;5115431;28;19911;-74
2022/08/10 14:25:07;;;;;;;;;;;27.40;57.00;;;;;;5115531;28;19912;-74
2022/08/10 14:27:33;;;;;;;;;;;27.30;57.00;;;;;;5115500;28;19922;-76
2022/08/10 14:30:00;;;;;;;;;;;27.30;57.10;;;;;;5115837;28;19998;-74
2022/08/10 14:32:26;;;;;;;;;;;27.20;57.10;;;;;;5115598;28;20345;-75
2022/08/10 14:34:53;;;;;;;;;;;27.20;57.20;;;;;;5115977;28;19960;-77